Terminal Aerodrome Forecast
Issued by NWS Jackson, MS

Home | Current Version | Previous Version | Text Only | Print | Product List | Glossary On
Versions: 1 2 3 4 5 6 7 8 9 10 11 12 13 14 15 16 17 18 19
000
FTUS44 KJAN 201123
TAFGWO
TAF
KGWO 201123Z 2012/2112 15010KT P6SM SCT020 BKN250
     FM201600 17017G25KT P6SM SCT030 BKN050
     FM210000 15012KT P6SM SCT100 BKN250
     FM210700 17010KT P6SM OVC020=

USA.gov is the U.S. government's official web portal to all federal, state and local government web resources and services.